Terminal Aerodrome Forecast
Issued by NWS

Home | Current Version | Previous Version | Graphics & Text | Print | Product List | Glossary On
Versions: 1 2 3 4 5 6 7 8 9 10 11 12 13 14 15 16 17 18 19 20 21 22 23 24 25 26 27 28 29 30 31 32 33 34 35 36 37 38 39 40 41 42 43 44 45 46 47 48 49 50
000
FTUS43 KLOT 152323
TAFGYY
TAF
KGYY 152323Z 1600/1624 06013G20KT P6SM FEW070 SCT120 BKN150
     FM160400 08009KT P6SM BKN045 BKN070
     FM160800 08009KT P6SM -SHRA BKN025
      TEMPO 1608/1612 4SM -SHRA BR OVC008
     FM161200 10007KT 5SM BR VCSH OVC010
     FM161600 08007KT P6SM BKN015
     FM162000 03008KT P6SM SCT025 BKN045=

USA.gov is the U.S. government's official web portal to all federal, state and local government web resources and services.